createdAt,value
2022-12-14T00:01:40.716Z,93397.63
2022-12-14T00:04:07.431Z,93380.38
2022-12-14T00:06:34.282Z,93366.41
2022-12-14T00:09:03.847Z,93393.28
2022-12-14T00:11:32.843Z,93395.22
2022-12-14T00:14:01.957Z,93378.75
2022-12-14T00:16:31.287Z,93360.13
2022-12-14T00:18:59.806Z,93352.25
2022-12-14T00:21:27.647Z,93351.13
2022-12-14T00:23:55.741Z,93336.81
2022-12-14T00:26:25.810Z,93329.84
2022-12-14T00:28:54.712Z,93347.59
2022-12-14T00:31:22.345Z,93335.03
2022-12-14T00:33:50.405Z,93340.63
2022-12-14T00:36:17.414Z,93332.81
2022-12-14T00:38:44.877Z,93335.56
2022-12-14T00:41:12.808Z,93355.06
2022-12-14T00:43:40.253Z,93346.72
2022-12-14T00:46:07.474Z,93357.31
2022-12-14T00:48:35.431Z,93355.53
2022-12-14T00:51:02.833Z,93363.78
2022-12-14T00:53:29.650Z,93369.75
2022-12-14T00:55:57.097Z,93374.09
2022-12-14T00:58:25.458Z,93397.59
2022-12-14T01:01:00.577Z,93406.41
2022-12-14T01:03:28.684Z,93409.75
2022-12-14T01:05:56.308Z,93412.72
2022-12-14T01:08:23.576Z,93419.81
2022-12-14T01:10:51.697Z,93415.91
2022-12-14T01:13:19.205Z,93409.34
2022-12-14T01:15:46.016Z,93408.38
2022-12-14T01:18:13.223Z,93404.44
2022-12-14T01:20:40.512Z,93388.56
2022-12-14T01:23:07.376Z,93356.81
2022-12-14T01:25:34.629Z,93377.44
2022-12-14T01:28:01.373Z,93375.06
2022-12-14T01:30:28.370Z,93374.88
2022-12-14T01:32:55.424Z,93374.78
2022-12-14T01:35:22.177Z,93377.31
2022-12-14T01:37:49.079Z,93372.06
2022-12-14T01:40:16.474Z,93375.53
2022-12-14T01:42:43.463Z,93379.72
2022-12-14T01:45:21.800Z,93361.97
2022-12-14T01:47:55.362Z,93360.31
2022-12-14T01:50:48.675Z,93345.69
2022-12-14T01:53:21.783Z,93361.00
2022-12-14T01:55:54.191Z,93352.78
2022-12-14T01:58:26.817Z,93369.91
2022-12-14T02:00:56.741Z,93369.22
2022-12-14T02:03:41.026Z,93373.00
2022-12-14T02:06:21.060Z,93377.69
2022-12-14T02:08:50.201Z,93381.38
2022-12-14T02:11:23.362Z,93378.50
2022-12-14T02:13:50.199Z,93382.59
2022-12-14T02:16:17.117Z,93386.78
2022-12-14T02:18:44.001Z,93372.66
2022-12-14T02:21:36.770Z,93379.16
2022-12-14T02:24:40.886Z,93398.56
2022-12-14T02:27:13.121Z,93403.91
2022-12-14T02:29:51.688Z,93393.50
2022-12-14T02:32:18.358Z,93375.97
2022-12-14T02:35:08.399Z,93375.47
2022-12-14T02:38:00.784Z,93353.31
2022-12-14T02:40:36.722Z,93354.88
2022-12-14T02:43:21.844Z,93340.22
2022-12-14T02:46:25.839Z,93341.94
2022-12-14T02:49:07.844Z,93344.94
2022-12-14T02:51:57.885Z,93335.66
2022-12-14T02:55:06.778Z,93321.06
2022-12-14T02:57:48.163Z,93323.91
2022-12-14T03:00:15.913Z,93328.81
2022-12-14T03:02:45.572Z,93331.88
2022-12-14T03:05:12.990Z,93327.38
2022-12-14T03:07:59.153Z,93338.97
2022-12-14T03:10:38.138Z,93338.59
2022-12-14T03:13:25.246Z,93322.94
2022-12-14T03:16:08.856Z,93297.44
2022-12-14T03:18:42.381Z,93310.56
2022-12-14T03:21:13.161Z,93320.47
2022-12-14T03:23:44.161Z,93300.94
2022-12-14T03:26:20.153Z,93281.03
2022-12-14T03:28:51.230Z,93281.44
2022-12-14T03:31:28.259Z,93301.28
2022-12-14T03:33:58.086Z,93281.31
2022-12-14T03:36:40.926Z,93290.75
2022-12-14T03:39:13.495Z,93274.41
2022-12-14T03:41:56.673Z,93283.09
2022-12-14T03:44:40.388Z,93273.75
2022-12-14T03:47:43.670Z,93282.53
2022-12-14T03:50:16.113Z,93278.78
2022-12-14T03:52:48.402Z,93264.31
2022-12-14T03:55:33.993Z,93271.53
2022-12-14T03:58:06.542Z,93262.84
2022-12-14T04:00:51.051Z,93260.44
2022-12-14T04:03:39.269Z,93264.25
2022-12-14T04:06:26.865Z,93256.59
2022-12-14T04:08:56.909Z,93281.47
2022-12-14T04:11:46.497Z,93276.63
2022-12-14T04:14:51.193Z,93278.22
2022-12-14T04:17:43.616Z,93288.47
2022-12-14T04:20:21.313Z,93285.97
2022-12-14T04:22:53.121Z,93290.50
2022-12-14T04:26:01.374Z,93302.59
2022-12-14T04:29:00.898Z,93282.72
2022-12-14T04:31:31.748Z,93282.63
2022-12-14T04:34:03.068Z,93288.19
2022-12-14T04:36:43.646Z,93284.06
2022-12-14T04:39:17.956Z,93277.00
2022-12-14T04:41:49.709Z,93250.72
2022-12-14T04:44:38.012Z,93256.41
2022-12-14T04:47:09.416Z,93246.03
2022-12-14T04:49:52.490Z,93226.09
2022-12-14T04:52:28.246Z,93221.50
2022-12-14T04:54:58.776Z,93223.38
2022-12-14T04:57:32.817Z,93227.59
2022-12-14T05:00:01.559Z,93212.06
2022-12-14T05:03:07.475Z,93230.97
2022-12-14T05:06:00.774Z,93222.75
2022-12-14T05:08:47.061Z,93239.25
2022-12-14T05:11:52.728Z,93243.50
2022-12-14T05:14:22.572Z,93224.63
2022-12-14T05:16:50.623Z,93226.69
2022-12-14T05:19:17.365Z,93210.84
2022-12-14T05:21:49.848Z,93225.88
2022-12-14T05:24:17.422Z,93222.34
2022-12-14T05:26:45.577Z,93219.50
2022-12-14T05:29:12.838Z,93226.59
2022-12-14T05:31:40.102Z,93223.66
2022-12-14T05:34:07.171Z,93219.34
2022-12-14T05:36:33.921Z,93223.13
2022-12-14T05:39:00.987Z,93211.06
2022-12-14T05:41:28.209Z,93209.50
2022-12-14T05:43:55.151Z,93203.00
2022-12-14T05:46:22.162Z,93200.56
2022-12-14T05:48:49.676Z,93190.06
2022-12-14T05:51:16.897Z,93183.19
2022-12-14T05:53:44.297Z,93179.66
2022-12-14T05:56:12.073Z,93167.03
2022-12-14T05:58:39.640Z,93183.19
2022-12-14T06:01:13.960Z,93177.69
2022-12-14T06:03:44.404Z,93185.28
2022-12-14T06:06:13.023Z,93165.75
2022-12-14T06:08:43.047Z,93165.69
2022-12-14T06:11:12.861Z,93159.28
2022-12-14T06:13:41.819Z,93156.28
2022-12-14T06:16:21.407Z,93156.09
2022-12-14T06:18:54.091Z,93163.50
2022-12-14T06:21:23.883Z,93159.53
2022-12-14T06:23:50.601Z,93154.69
2022-12-14T06:26:18.414Z,93160.41
2022-12-14T06:28:45.537Z,93158.00
2022-12-14T06:31:16.424Z,93165.72
2022-12-14T06:33:44.554Z,93164.91
2022-12-14T06:36:32.985Z,93169.06
2022-12-14T06:39:05.814Z,93148.34
2022-12-14T06:41:33.025Z,93160.50
2022-12-14T06:44:05.650Z,93142.03
2022-12-14T06:46:33.317Z,93147.94
2022-12-14T06:49:00.080Z,93139.25
2022-12-14T06:51:27.028Z,93139.94
2022-12-14T06:53:56.139Z,93143.75
2022-12-14T06:56:26.164Z,93139.66
2022-12-14T06:58:57.097Z,93128.63
2022-12-14T07:01:25.662Z,93140.22
2022-12-14T07:03:58.644Z,93127.78
2022-12-14T07:06:27.232Z,93117.00
2022-12-14T07:08:56.188Z,93129.88
2022-12-14T07:11:23.679Z,93125.25
2022-12-14T07:13:50.415Z,93128.63
2022-12-14T07:16:20.206Z,93130.63
2022-12-14T07:18:47.116Z,93120.53
2022-12-14T07:21:16.225Z,93124.59
2022-12-14T07:23:45.243Z,93124.47
2022-12-14T07:26:15.190Z,93106.81
2022-12-14T07:28:43.805Z,93112.59
2022-12-14T07:31:16.161Z,93105.19
2022-12-14T07:33:43.872Z,93105.50
2022-12-14T07:36:13.280Z,93100.34
2022-12-14T07:38:42.415Z,93088.53
2022-12-14T07:41:16.489Z,93094.41
2022-12-14T07:43:46.325Z,93081.38
2022-12-14T07:46:20.299Z,93079.84
2022-12-14T07:48:49.414Z,93090.22
2022-12-14T07:51:18.991Z,93083.53
2022-12-14T07:53:46.406Z,93087.09
2022-12-14T07:56:27.711Z,93089.06
2022-12-14T07:58:56.501Z,93074.78
2022-12-14T08:01:26.001Z,93083.16
2022-12-14T08:04:05.756Z,93082.97
2022-12-14T08:06:33.540Z,93084.94
2022-12-14T08:09:01.655Z,93096.00
2022-12-14T08:11:29.369Z,93077.03
2022-12-14T08:14:07.176Z,93069.16
2022-12-14T08:16:34.954Z,93059.34
2022-12-14T08:19:02.061Z,93080.81
2022-12-14T08:21:30.600Z,93069.47
2022-12-14T08:23:58.005Z,93060.59
2022-12-14T08:26:31.646Z,93052.59
2022-12-14T08:29:00.904Z,93049.50
2022-12-14T08:31:30.905Z,93033.44
2022-12-14T08:34:02.131Z,93047.66
2022-12-14T08:36:33.241Z,93040.19
2022-12-14T08:39:02.363Z,93043.72
2022-12-14T08:41:29.805Z,93029.94
2022-12-14T08:43:58.668Z,93019.88
2022-12-14T08:46:28.398Z,93012.59
2022-12-14T08:48:55.465Z,93016.19
2022-12-14T08:51:24.062Z,93017.06
2022-12-14T08:53:51.828Z,93004.84
2022-12-14T08:56:21.183Z,93011.19
2022-12-14T08:58:47.986Z,93003.56
2022-12-14T09:01:17.637Z,93006.38
2022-12-14T09:03:46.251Z,92995.88
2022-12-14T09:06:34.232Z,92995.31
2022-12-14T09:09:01.862Z,92995.47
2022-12-14T09:11:30.209Z,93014.28
2022-12-14T09:13:57.604Z,93011.75
2022-12-14T09:16:28.632Z,93022.63
2022-12-14T09:18:55.783Z,93021.84
2022-12-14T09:21:23.223Z,93012.41
2022-12-14T09:23:55.586Z,92990.00
2022-12-14T09:26:25.523Z,92982.28
2022-12-14T09:28:54.474Z,92984.81
2022-12-14T09:31:24.617Z,92981.44
2022-12-14T09:33:51.793Z,92973.88
2022-12-14T09:36:24.632Z,92968.31
2022-12-14T09:38:52.702Z,92985.84
2022-12-14T09:41:50.749Z,92983.78
2022-12-14T09:44:24.996Z,92972.81
2022-12-14T09:47:01.442Z,92964.69
2022-12-14T09:49:32.680Z,92977.19
2022-12-14T09:52:04.330Z,92961.56
2022-12-14T09:54:36.567Z,92946.72
2022-12-14T09:57:24.458Z,92947.75
2022-12-14T09:59:53.985Z,92949.09
2022-12-14T10:02:36.123Z,92943.91
2022-12-14T10:05:12.182Z,92923.53
2022-12-14T10:07:49.836Z,92908.72
2022-12-14T10:10:24.017Z,92912.56
2022-12-14T10:12:53.790Z,92913.28
2022-12-14T10:15:40.553Z,92906.47
2022-12-14T10:18:49.310Z,92915.03
2022-12-14T10:21:15.862Z,92907.19
2022-12-14T10:24:01.419Z,92915.84
2022-12-14T10:26:51.815Z,92901.16
2022-12-14T10:29:40.785Z,92896.97
2022-12-14T10:32:20.872Z,92887.22
2022-12-14T10:34:48.591Z,92878.19
2022-12-14T10:37:37.929Z,92900.81
2022-12-14T10:40:17.609Z,92894.84
2022-12-14T10:42:50.990Z,92876.63
2022-12-14T10:45:40.897Z,92887.53
2022-12-14T10:48:44.585Z,92881.19
2022-12-14T10:51:18.871Z,92886.22
2022-12-14T10:54:01.917Z,92890.50
2022-12-14T10:56:33.030Z,92891.03
2022-12-14T10:59:35.117Z,92884.19
2022-12-14T11:02:08.073Z,92876.97
2022-12-14T11:04:45.019Z,92858.66
2022-12-14T11:07:17.873Z,92861.38
2022-12-14T11:09:48.018Z,92858.34
2022-12-14T11:12:27.708Z,92865.03
2022-12-14T11:14:57.248Z,92871.34
2022-12-14T11:17:30.193Z,92865.59
2022-12-14T11:20:27.266Z,92850.81
2022-12-14T11:23:06.731Z,92840.38
2022-12-14T11:25:42.614Z,92833.25
2022-12-14T11:28:18.240Z,92839.72
2022-12-14T11:31:03.823Z,92830.88
2022-12-14T11:33:36.005Z,92812.75
2022-12-14T11:36:04.062Z,92858.16
2022-12-14T11:38:31.928Z,92832.31
2022-12-14T11:41:08.881Z,92821.94
2022-12-14T11:43:41.229Z,92813.47
2022-12-14T11:46:08.325Z,92816.66
2022-12-14T11:48:38.878Z,92823.53
2022-12-14T11:51:12.489Z,92794.19
2022-12-14T11:53:41.027Z,92791.16
2022-12-14T11:56:17.410Z,92812.94
2022-12-14T11:58:52.258Z,92819.75
2022-12-14T12:01:25.467Z,92823.13
2022-12-14T12:03:57.174Z,92839.56
2022-12-14T12:06:30.203Z,92813.03
2022-12-14T12:09:00.434Z,92825.25
2022-12-14T12:11:33.574Z,92809.34
2022-12-14T12:14:30.449Z,92804.44
2022-12-14T12:16:57.951Z,92808.09
2022-12-14T12:19:38.569Z,92806.34
2022-12-14T12:22:09.365Z,92798.38
2022-12-14T12:25:25.795Z,92809.47
2022-12-14T12:27:59.763Z,92829.41
2022-12-14T12:30:32.709Z,92795.78
2022-12-14T12:33:34.972Z,92823.75
2022-12-14T12:36:07.481Z,92808.19
2022-12-14T12:38:52.009Z,92809.78
2022-12-14T12:41:34.287Z,92771.19
2022-12-14T12:44:18.871Z,92756.22
2022-12-14T12:47:47.224Z,92744.78
2022-12-14T12:50:21.685Z,92738.28
2022-12-14T12:53:06.629Z,92722.47
2022-12-14T12:55:42.867Z,92732.22
2022-12-14T12:58:19.502Z,92736.25
2022-12-14T13:00:51.557Z,92736.63
2022-12-14T13:03:29.737Z,92760.00
2022-12-14T13:06:06.758Z,92766.00
2022-12-14T13:08:39.333Z,92749.41
2022-12-14T13:11:26.018Z,92721.41
2022-12-14T13:14:05.474Z,92733.25
2022-12-14T13:16:36.966Z,92729.53
2022-12-14T13:19:49.850Z,92749.63
2022-12-14T13:22:18.281Z,92732.13
2022-12-14T13:24:55.555Z,92745.00
2022-12-14T13:27:25.922Z,92766.19
2022-12-14T13:30:11.004Z,92752.06
2022-12-14T13:33:15.336Z,92764.59
2022-12-14T13:36:06.455Z,92773.59
2022-12-14T13:39:03.524Z,92762.50
2022-12-14T13:41:42.139Z,92773.47
2022-12-14T13:44:31.264Z,92774.91
2022-12-14T13:47:06.503Z,92777.47
2022-12-14T13:49:34.573Z,92780.91
2022-12-14T13:52:01.664Z,92775.19
2022-12-14T13:54:34.772Z,92790.34
2022-12-14T13:57:13.020Z,92816.19
2022-12-14T13:59:49.914Z,92808.59
2022-12-14T14:02:32.346Z,92824.78
2022-12-14T14:05:26.453Z,92794.56
2022-12-14T14:08:04.781Z,92803.47
2022-12-14T14:10:34.741Z,92798.78
2022-12-14T14:13:27.439Z,92821.31
2022-12-14T14:16:28.507Z,92833.31
2022-12-14T14:19:05.760Z,92823.91
2022-12-14T14:22:14.364Z,92788.78
2022-12-14T14:24:52.404Z,92809.69
2022-12-14T14:27:24.126Z,92823.16
2022-12-14T14:29:52.204Z,92829.41
2022-12-14T14:32:36.346Z,92825.88
2022-12-14T14:35:06.751Z,92820.69
2022-12-14T14:37:36.721Z,92842.06
2022-12-14T14:40:21.619Z,92850.47
2022-12-14T14:43:16.979Z,92824.59
2022-12-14T14:45:54.132Z,92833.84
2022-12-14T14:48:35.459Z,92849.84
2022-12-14T14:51:07.772Z,92872.72
2022-12-14T14:53:37.608Z,92860.59
2022-12-14T14:56:29.685Z,92831.66
2022-12-14T14:59:14.670Z,92831.00
2022-12-14T15:01:47.677Z,92838.91
2022-12-14T15:04:44.258Z,92863.41
2022-12-14T15:07:16.251Z,92852.13
2022-12-14T15:10:20.680Z,92856.59
2022-12-14T15:13:01.617Z,92850.84
2022-12-14T15:15:35.841Z,92849.66
2022-12-14T15:18:28.056Z,92871.88
2022-12-14T15:21:02.502Z,92870.06
2022-12-14T15:23:49.603Z,92869.63
2022-12-14T15:26:25.262Z,92855.63
2022-12-14T15:28:55.362Z,92855.78
2022-12-14T15:31:36.219Z,92858.34
2022-12-14T15:34:04.835Z,92868.88
2022-12-14T15:36:37.533Z,92876.47
2022-12-14T15:39:06.211Z,92888.09
2022-12-14T15:41:34.900Z,92881.06
2022-12-14T15:44:01.750Z,92886.09
2022-12-14T15:46:31.926Z,92893.97
2022-12-14T15:49:06.083Z,92897.00
2022-12-14T15:51:38.208Z,92904.13
2022-12-14T15:54:07.321Z,92894.53
2022-12-14T15:56:53.567Z,92881.47
2022-12-14T15:59:32.754Z,92891.31
2022-12-14T16:02:21.206Z,92884.69
2022-12-14T16:04:48.644Z,92906.50
2022-12-14T16:07:21.322Z,92915.44
2022-12-14T16:09:54.851Z,92918.38
2022-12-14T16:12:42.545Z,92928.81
2022-12-14T16:15:20.069Z,92935.41
2022-12-14T16:17:46.944Z,92901.66
2022-12-14T16:20:16.125Z,92894.69
2022-12-14T16:22:59.044Z,92885.91
2022-12-14T16:25:25.835Z,92905.44
2022-12-14T16:27:54.210Z,92886.91
2022-12-14T16:30:29.998Z,92910.69
2022-12-14T16:33:17.136Z,92915.78
2022-12-14T16:35:46.587Z,92903.75
2022-12-14T16:38:17.602Z,92932.28
2022-12-14T16:40:55.306Z,92934.63
2022-12-14T16:43:27.520Z,92927.03
2022-12-14T16:46:04.006Z,92938.09
2022-12-14T16:48:36.706Z,92944.09
2022-12-14T16:51:19.955Z,92944.06
2022-12-14T16:54:01.020Z,92905.28
2022-12-14T16:56:32.673Z,92909.28
2022-12-14T16:59:01.344Z,92918.41
2022-12-14T17:01:37.314Z,92906.91
2022-12-14T17:04:08.131Z,92878.25
2022-12-14T17:06:53.718Z,92901.13
2022-12-14T17:09:26.595Z,92913.59
2022-12-14T17:11:57.631Z,92925.31
2022-12-14T17:14:25.074Z,92916.53
2022-12-14T17:17:01.810Z,92931.44
2022-12-14T17:19:37.137Z,92905.94
2022-12-14T17:22:07.942Z,92922.72
2022-12-14T17:24:37.415Z,92913.06
2022-12-14T17:27:05.831Z,92918.16
2022-12-14T17:29:37.125Z,92928.72
2022-12-14T17:32:04.306Z,92918.16
2022-12-14T17:34:31.155Z,92922.69
2022-12-14T17:36:57.970Z,92930.47
2022-12-14T17:39:25.205Z,92942.47
2022-12-14T17:41:52.794Z,92949.41
2022-12-14T17:44:22.377Z,92964.25
2022-12-14T17:46:51.309Z,92960.38
2022-12-14T17:49:34.469Z,92968.38
2022-12-14T17:52:07.737Z,92981.97
2022-12-14T17:54:34.695Z,92989.59
2022-12-14T17:57:02.722Z,93005.09
2022-12-14T17:59:30.411Z,92992.97
2022-12-14T18:01:57.237Z,92993.63
2022-12-14T18:04:24.086Z,92997.63
2022-12-14T18:06:52.646Z,93001.06
2022-12-14T18:09:19.845Z,93000.00
2022-12-14T18:12:21.601Z,92995.00
2022-12-14T18:14:38.984Z,92996.03
2022-12-14T18:17:11.236Z,93012.59
2022-12-14T18:19:38.675Z,93025.75
2022-12-14T18:22:07.834Z,93036.41
2022-12-14T18:24:34.895Z,93010.06
2022-12-14T18:27:01.733Z,93014.88
2022-12-14T18:29:28.458Z,93020.59
2022-12-14T18:31:55.274Z,93010.78
2022-12-14T18:34:23.175Z,93031.25
2022-12-14T18:36:50.050Z,93055.44
2022-12-14T18:39:18.672Z,93034.63
2022-12-14T18:41:45.942Z,93027.84
2022-12-14T18:44:12.715Z,93055.72
2022-12-14T18:46:39.783Z,93063.03
2022-12-14T18:49:08.114Z,93084.66
2022-12-14T18:51:35.178Z,93079.16
2022-12-14T18:54:03.327Z,93083.84
2022-12-14T18:56:30.649Z,93094.84
2022-12-14T18:58:57.730Z,93085.81
2022-12-14T19:01:24.974Z,93090.53
2022-12-14T19:03:53.404Z,93088.25
2022-12-14T19:09:13.002Z,93087.25
2022-12-14T19:11:42.143Z,93087.03
2022-12-14T19:14:09.698Z,93096.16
2022-12-14T19:16:37.621Z,93088.81
2022-12-14T19:19:04.428Z,93061.94
2022-12-14T19:21:31.575Z,93089.41
2022-12-14T19:23:59.691Z,93084.22
2022-12-14T19:26:28.660Z,93104.44
2022-12-14T19:28:55.887Z,93088.84
2022-12-14T19:31:24.031Z,93116.31
2022-12-14T19:33:52.302Z,93110.16
2022-12-14T19:36:19.206Z,93107.84
2022-12-14T19:38:49.266Z,93105.47
2022-12-14T19:41:20.319Z,93118.88
2022-12-14T19:43:47.531Z,93118.56
2022-12-14T19:46:15.698Z,93119.81
2022-12-14T19:48:42.803Z,93126.91
2022-12-14T19:51:12.121Z,93102.50
2022-12-14T19:53:40.395Z,93097.94
2022-12-14T19:56:09.182Z,93102.34
2022-12-14T19:58:37.783Z,93108.03
2022-12-14T20:01:12.897Z,93104.31
2022-12-14T20:03:39.962Z,93104.66
2022-12-14T20:06:09.263Z,93113.28
2022-12-14T20:08:37.623Z,93109.09
2022-12-14T20:11:10.285Z,93118.53
2022-12-14T20:13:39.101Z,93110.16
2022-12-14T20:16:08.499Z,93129.16
2022-12-14T20:18:35.284Z,93117.78
2022-12-14T20:21:04.357Z,93132.75
2022-12-14T20:23:33.523Z,93135.88
2022-12-14T20:26:01.979Z,93139.59
2022-12-14T20:28:29.374Z,93138.81
2022-12-14T20:30:56.458Z,93113.03
2022-12-14T20:33:29.877Z,93129.81
2022-12-14T20:35:58.185Z,93136.06
2022-12-14T20:38:25.096Z,93144.69
2022-12-14T20:40:53.586Z,93146.31
2022-12-14T20:43:20.637Z,93133.78
2022-12-14T20:45:47.637Z,93138.50
2022-12-14T20:48:14.469Z,93153.88
2022-12-14T20:50:43.397Z,93167.44
2022-12-14T20:53:10.169Z,93155.72
2022-12-14T20:55:38.773Z,93143.81
2022-12-14T20:58:05.542Z,93160.41
2022-12-14T21:00:32.517Z,93181.81
2022-12-14T21:02:59.490Z,93194.41
2022-12-14T21:05:26.432Z,93209.16
2022-12-14T21:07:54.790Z,93189.78
2022-12-14T21:10:23.743Z,93176.34
2022-12-14T21:12:50.664Z,93186.84
2022-12-14T21:15:17.631Z,93213.16
2022-12-14T21:17:44.765Z,93210.94
2022-12-14T21:20:12.336Z,93195.84
2022-12-14T21:22:40.249Z,93201.09
2022-12-14T21:25:08.874Z,93211.78
2022-12-14T21:27:40.670Z,93219.63
2022-12-14T21:30:11.057Z,93227.34
2022-12-14T21:32:39.909Z,93226.25
2022-12-14T21:35:08.591Z,93230.28
2022-12-14T21:37:40.024Z,93238.59
2022-12-14T21:40:09.010Z,93235.25
2022-12-14T21:42:36.232Z,93233.16
2022-12-14T21:45:05.013Z,93226.13
2022-12-14T21:47:31.878Z,93235.91
2022-12-14T21:49:58.811Z,93246.84
2022-12-14T21:52:27.412Z,93242.84
2022-12-14T21:54:55.348Z,93226.16
2022-12-14T21:57:50.303Z,93236.59
2022-12-14T22:00:18.240Z,93232.72
2022-12-14T22:02:45.064Z,93198.38
2022-12-14T22:05:12.133Z,93229.41
2022-12-14T22:07:40.046Z,93233.78
2022-12-14T22:10:08.019Z,93266.72
2022-12-14T22:12:36.616Z,93257.59
2022-12-14T22:15:03.691Z,93277.81
2022-12-14T22:17:30.469Z,93272.72
2022-12-14T22:19:57.140Z,93275.88
2022-12-14T22:22:25.208Z,93275.06
2022-12-14T22:24:52.894Z,93284.88
2022-12-14T22:27:20.472Z,93279.69
2022-12-14T22:29:47.297Z,93262.22
2022-12-14T22:32:14.910Z,93276.97
2022-12-14T22:34:42.429Z,93265.00
2022-12-14T22:37:10.098Z,93269.81
2022-12-14T22:39:36.897Z,93280.41
2022-12-14T22:42:03.947Z,93282.88
2022-12-14T22:44:30.739Z,93258.69
2022-12-14T22:46:57.836Z,93249.56
2022-12-14T22:49:25.333Z,93252.72
2022-12-14T22:51:52.051Z,93239.72
2022-12-14T22:54:24.270Z,93262.72
2022-12-14T22:57:04.187Z,93254.47
2022-12-14T23:00:11.935Z,93264.88
2022-12-14T23:02:39.585Z,93270.84
2022-12-14T23:05:08.489Z,93264.72
2022-12-14T23:07:36.751Z,93263.75
2022-12-14T23:10:23.466Z,93251.34
2022-12-14T23:13:09.485Z,93264.97
2022-12-14T23:15:54.778Z,93248.56
2022-12-14T23:18:40.150Z,93253.88
2022-12-14T23:21:30.554Z,93236.69
2022-12-14T23:24:16.450Z,93220.25
2022-12-14T23:27:07.251Z,93248.78
2022-12-14T23:29:54.733Z,93246.47
2022-12-14T23:32:40.334Z,93261.31
2022-12-14T23:35:26.189Z,93273.19
2022-12-14T23:38:12.006Z,93275.78
2022-12-14T23:40:57.884Z,93264.03
2022-12-14T23:43:43.080Z,93273.34
2022-12-14T23:46:28.423Z,93276.47
2022-12-14T23:49:16.133Z,93262.28
2022-12-14T23:52:01.923Z,93237.84
2022-12-14T23:54:47.228Z,93260.66
2022-12-14T23:57:32.864Z,93252.25
